createdAt,value
2023-02-04T14:39:01.654Z,101094.13
2023-02-04T14:41:33.599Z,101087.50
2023-02-04T14:44:05.439Z,101091.88
2023-02-04T14:46:35.663Z,101109.47
2023-02-04T14:49:05.963Z,101103.84
2023-02-04T14:51:36.211Z,101100.44
2023-02-04T14:54:07.605Z,101104.31
2023-02-04T14:56:38.630Z,101109.22
2023-02-04T14:59:09.129Z,101111.91
2023-02-04T15:01:39.565Z,101108.63
2023-02-04T15:04:12.022Z,101113.34
2023-02-04T15:06:42.462Z,101109.22
2023-02-04T15:09:12.721Z,101102.59
2023-02-04T15:11:42.870Z,101104.75
2023-02-04T15:14:15.824Z,101105.53
2023-02-04T15:16:53.306Z,101108.00
2023-02-04T15:19:25.989Z,101101.38
2023-02-04T15:21:56.391Z,101108.44
2023-02-04T15:24:29.098Z,101109.25
2023-02-04T15:26:59.336Z,101109.44
2023-02-04T15:29:29.807Z,101104.44
2023-02-04T15:32:00.287Z,101109.97
2023-02-04T15:34:32.865Z,101097.19
2023-02-04T15:37:12.420Z,101105.97
2023-02-04T15:39:43.024Z,101105.47
2023-02-04T15:42:13.495Z,101108.59
2023-02-04T15:45:51.892Z,101094.94
2023-02-04T15:47:40.265Z,101096.56
2023-02-04T15:50:14.835Z,101081.44
2023-02-04T15:52:45.000Z,101076.44
2023-02-04T15:55:15.027Z,101080.03
2023-02-04T15:57:45.317Z,101075.91
2023-02-04T16:00:18.051Z,101080.03
2023-02-04T16:02:48.475Z,101076.44
2023-02-04T16:05:18.846Z,101074.28
2023-02-04T16:07:49.154Z,101075.72
2023-02-04T16:10:20.513Z,101072.66
2023-02-04T16:12:50.922Z,101070.53
2023-02-04T16:15:21.475Z,101069.91
2023-02-04T16:17:51.814Z,101073.28
2023-02-04T16:20:26.603Z,101066.53
2023-02-04T16:22:56.884Z,101062.09
2023-02-04T16:25:27.642Z,101049.44
2023-02-04T16:27:57.978Z,101047.91
2023-02-04T16:30:28.275Z,101047.47
2023-02-04T16:32:58.735Z,101046.66
2023-02-04T16:35:29.656Z,101042.59
2023-02-04T16:38:00.056Z,101049.53
2023-02-04T16:40:31.848Z,101044.03
2023-02-04T16:43:04.310Z,101053.94
2023-02-04T16:45:35.779Z,101049.44
2023-02-04T16:48:06.005Z,101043.72
2023-02-04T16:50:36.499Z,101047.78
2023-02-04T16:53:08.072Z,101048.75
2023-02-04T16:55:38.526Z,101051.00
2023-02-04T16:58:09.936Z,101042.38
2023-02-04T17:00:42.336Z,101042.28
2023-02-04T17:03:17.109Z,101044.03
2023-02-04T17:05:47.255Z,101042.53
2023-02-04T17:08:17.696Z,101054.38
2023-02-04T17:11:06.339Z,101049.16
2023-02-04T17:13:36.800Z,101053.84
2023-02-04T17:16:07.156Z,101046.69
2023-02-04T17:18:39.494Z,101053.16
2023-02-04T17:21:11.481Z,101058.34
2023-02-04T17:23:42.827Z,101054.47
2023-02-04T17:26:13.202Z,101049.78
2023-02-04T17:28:43.483Z,101050.91
2023-02-04T17:31:13.869Z,101059.69
2023-02-04T17:33:44.920Z,101054.28
2023-02-04T17:36:17.587Z,101066.34
2023-02-04T17:38:47.927Z,101056.75
2023-02-04T17:41:17.869Z,101060.91
2023-02-04T17:43:47.852Z,101055.91
2023-02-04T17:46:18.208Z,101047.44
2023-02-04T17:48:51.767Z,101046.00
2023-02-04T17:51:22.131Z,101046.00
2023-02-04T17:53:52.266Z,101050.41
2023-02-04T17:56:26.005Z,101047.13
2023-02-04T17:58:58.570Z,101046.31
2023-02-04T18:01:28.863Z,101039.69
2023-02-04T18:04:02.354Z,101046.00
2023-02-04T18:06:33.177Z,101037.22
2023-02-04T18:09:07.361Z,101041.63
2023-02-04T18:11:42.431Z,101039.19
2023-02-04T18:14:26.654Z,101046.09
2023-02-04T18:17:00.986Z,101037.22
2023-02-04T18:19:33.637Z,101026.31
2023-02-04T18:22:08.189Z,101032.97
2023-02-04T18:24:42.372Z,101031.00
2023-02-04T18:27:26.461Z,101037.94
2023-02-04T18:29:58.852Z,101024.69
2023-02-04T18:32:36.365Z,101028.31
2023-02-04T18:35:46.201Z,101029.16
2023-02-04T18:38:25.452Z,101026.41
2023-02-04T18:41:03.701Z,101027.19
2023-02-04T18:43:40.448Z,101020.06
2023-02-04T18:46:26.580Z,101008.72
2023-02-04T18:49:06.062Z,101009.53
2023-02-04T18:51:40.987Z,101017.28
2023-02-04T18:54:28.789Z,101005.97
2023-02-04T18:57:20.260Z,101011.47
2023-02-04T18:59:50.359Z,101014.75
2023-02-04T19:02:25.869Z,101003.03
2023-02-04T19:05:12.416Z,100998.00
2023-02-04T19:07:43.630Z,101006.47
2023-02-04T19:10:34.053Z,100998.50
2023-02-04T19:13:28.225Z,100992.00
2023-02-04T19:16:25.936Z,100999.31
2023-02-04T19:18:57.439Z,100992.00
2023-02-04T19:21:30.989Z,100996.06
2023-02-04T19:24:22.432Z,100988.41
2023-02-04T19:27:06.745Z,100998.81
2023-02-04T19:29:44.709Z,100994.25
2023-02-04T19:32:34.345Z,100991.16
2023-02-04T19:35:19.775Z,101000.56
2023-02-04T19:37:57.123Z,100987.09
2023-02-04T19:40:35.975Z,100990.16
2023-02-04T19:43:25.424Z,100999.88
2023-02-04T19:45:56.212Z,100992.41
2023-02-04T19:48:38.340Z,100981.41
2023-02-04T19:51:30.945Z,100984.16
2023-02-04T19:54:14.201Z,100982.19
2023-02-04T19:56:44.172Z,100977.00
2023-02-04T19:59:32.819Z,100973.41
2023-02-04T20:02:09.788Z,100972.09
2023-02-04T20:04:45.095Z,100974.25
2023-02-04T20:07:27.426Z,100971.50
2023-02-04T20:10:24.249Z,100974.53
2023-02-04T20:13:03.080Z,100966.59
2023-02-04T20:15:33.917Z,100969.63
2023-02-04T20:18:17.164Z,100964.13
2023-02-04T20:20:47.339Z,100961.06
2023-02-04T20:23:35.181Z,100966.06
2023-02-04T20:26:05.208Z,100970.28
2023-02-04T20:28:42.332Z,100959.72
2023-02-04T20:31:39.705Z,100958.94
2023-02-04T20:34:20.870Z,100960.06
2023-02-04T20:36:51.708Z,100958.94
2023-02-04T20:39:42.167Z,100958.13
2023-02-04T20:42:31.830Z,100960.38
2023-02-04T20:45:15.243Z,100956.19
2023-02-04T20:47:45.443Z,100954.03
2023-02-04T20:50:41.115Z,100950.97
2023-02-04T20:53:39.183Z,100942.19
2023-02-04T20:56:28.949Z,100949.97
2023-02-04T20:59:15.641Z,100936.19
2023-02-04T21:01:53.517Z,100935.34
2023-02-04T21:04:39.548Z,100943.63
2023-02-04T21:07:24.621Z,100940.38
2023-02-04T21:09:54.953Z,100943.63
2023-02-04T21:12:28.474Z,100946.38
2023-02-04T21:16:17.199Z,100950.47
2023-02-04T21:17:49.841Z,100949.97
2023-02-04T21:20:21.306Z,100944.25
2023-02-04T21:28:16.371Z,100953.00
2023-02-04T21:30:46.839Z,100955.28
2023-02-04T21:33:17.270Z,100956.09
2023-02-04T21:35:47.636Z,100954.47
2023-02-04T21:38:17.703Z,100951.19
2023-02-04T21:40:47.738Z,100954.28
2023-02-04T21:45:59.974Z,100949.88
2023-02-04T21:48:30.262Z,100962.22
2023-02-04T21:51:01.773Z,100958.66
2023-02-04T21:53:31.289Z,100969.69
2023-02-04T21:56:01.176Z,100961.72
2023-02-04T21:58:31.487Z,100968.84
2023-02-04T22:01:02.661Z,100974.69
2023-02-04T22:03:32.814Z,100971.84
2023-02-04T22:06:02.853Z,100974.59
2023-02-04T22:08:32.642Z,100975.72
2023-02-04T22:11:03.067Z,100987.88
2023-02-04T22:13:51.350Z,100990.09
2023-02-04T22:16:21.821Z,100990.09
2023-02-04T22:18:51.895Z,100999.19
2023-02-04T22:21:21.722Z,100997.53
2023-02-04T22:23:54.810Z,101004.19
2023-02-04T22:26:24.826Z,100992.03
2023-02-04T22:28:56.333Z,100994.00
2023-02-04T22:31:27.417Z,100995.91
2023-02-04T22:33:57.532Z,100999.81
2023-02-04T22:36:27.473Z,101007.78
2023-02-04T22:38:57.515Z,101002.25
2023-02-04T22:41:29.729Z,101015.22
2023-02-04T22:43:59.703Z,101016.56
2023-02-04T22:46:31.666Z,101019.59
2023-02-04T22:49:01.680Z,101020.44
2023-02-04T22:51:31.527Z,101025.44
2023-02-04T22:54:02.557Z,101023.78
2023-02-04T22:56:33.523Z,101025.94
2023-02-04T22:59:04.230Z,101030.63
2023-02-04T23:01:34.277Z,101035.94
2023-02-04T23:04:04.257Z,101040.66
2023-02-04T23:06:35.488Z,101040.00
2023-02-04T23:09:05.778Z,101038.69
2023-02-04T23:11:36.112Z,101039.81
2023-02-04T23:14:10.511Z,101050.25
2023-02-04T23:16:40.858Z,101047.81
2023-02-04T23:19:10.983Z,101051.69
2023-02-04T23:21:41.230Z,101042.91
2023-02-04T23:24:11.371Z,101053.41
2023-02-04T23:26:41.526Z,101050.66
2023-02-04T23:29:11.465Z,101045.66
2023-02-04T23:31:41.315Z,101052.56
2023-02-04T23:34:11.175Z,101055.03
2023-02-04T23:36:41.022Z,101051.97
2023-02-04T23:39:10.889Z,101058.09
2023-02-04T23:41:41.054Z,101060.75
2023-02-04T23:44:12.236Z,101058.81
2023-02-04T23:46:42.827Z,101063.91
2023-02-04T23:49:13.218Z,101055.47
2023-02-04T23:51:43.266Z,101056.66
2023-02-04T23:54:13.220Z,101064.28
2023-02-04T23:56:43.254Z,101063.06
2023-02-04T23:59:13.155Z,101062.75
